createdAt,value
2023-01-26T00:04:38.566Z,15.2
2023-01-26T00:09:43.657Z,15.2
2023-01-26T00:14:49.742Z,15.2
2023-01-26T00:19:55.824Z,15.2
2023-01-26T00:25:01.999Z,15.2
2023-01-26T00:30:08.011Z,15.2
2023-01-26T00:35:14.115Z,15.2
2023-01-26T00:40:20.193Z,15.1
2023-01-26T00:45:26.298Z,15.1
2023-01-26T00:50:32.361Z,15.1
2023-01-26T00:55:38.461Z,15.1
2023-01-26T01:00:44.539Z,15.1
2023-01-26T01:05:50.629Z,15.1
2023-01-26T01:10:56.718Z,15.1
2023-01-26T01:16:02.811Z,15.1
2023-01-26T01:21:08.893Z,15.1
2023-01-26T01:26:14.006Z,15.1
2023-01-26T01:31:20.092Z,15.1
2023-01-26T01:36:26.180Z,15.1
2023-01-26T01:41:32.273Z,15.1
2023-01-26T01:46:38.372Z,15
2023-01-26T01:51:43.490Z,15
2023-01-26T01:56:49.563Z,15
2023-01-26T02:01:54.681Z,15
2023-01-26T02:07:00.767Z,15
2023-01-26T02:12:06.853Z,15
2023-01-26T02:17:12.947Z,15
2023-01-26T02:22:19.036Z,15
2023-01-26T02:27:24.137Z,15
2023-01-26T02:32:30.234Z,15
2023-01-26T02:37:36.315Z,15
2023-01-26T02:42:42.410Z,15
2023-01-26T02:47:48.493Z,15
2023-01-26T02:52:54.578Z,14.9
2023-01-26T02:58:00.671Z,14.9
2023-01-26T03:03:06.784Z,14.9
2023-01-26T03:08:12.853Z,14.9
2023-01-26T03:13:18.938Z,14.9
2023-01-26T03:18:25.031Z,14.9
2023-01-26T03:23:31.115Z,14.9
2023-01-26T03:28:37.206Z,14.9
2023-01-26T03:33:42.319Z,14.9
2023-01-26T03:38:48.409Z,14.9
2023-01-26T03:43:54.488Z,14.9
2023-01-26T03:48:59.604Z,14.9
2023-01-26T03:54:05.714Z,14.9
2023-01-26T03:59:10.813Z,14.9
2023-01-26T04:04:16.884Z,14.8
2023-01-26T04:09:22.983Z,14.8
2023-01-26T04:14:28.100Z,14.8
2023-01-26T04:19:33.190Z,14.8
2023-01-26T04:24:39.307Z,14.8
2023-01-26T04:29:45.383Z,14.8
2023-01-26T04:34:51.470Z,14.8
2023-01-26T04:39:57.560Z,14.8
2023-01-26T04:45:03.638Z,14.8
2023-01-26T04:50:09.738Z,14.8
2023-01-26T04:55:15.813Z,14.8
2023-01-26T05:00:21.902Z,14.8
2023-01-26T05:05:28.027Z,14.8
2023-01-26T05:10:34.082Z,14.7
2023-01-26T05:15:40.163Z,14.7
2023-01-26T05:20:46.253Z,14.8
2023-01-26T05:25:52.359Z,14.8
2023-01-26T05:30:57.476Z,14.8
2023-01-26T05:36:03.548Z,14.8
2023-01-26T05:41:09.631Z,14.8
2023-01-26T05:46:15.719Z,14.8
2023-01-26T05:51:21.803Z,14.8
2023-01-26T05:56:27.896Z,14.8
2023-01-26T06:01:33.023Z,14.8
2023-01-26T06:06:38.128Z,14.8
2023-01-26T06:11:44.201Z,14.8
2023-01-26T06:16:49.318Z,14.8
2023-01-26T06:21:54.420Z,14.9
2023-01-26T06:27:00.507Z,14.9
2023-01-26T06:32:06.614Z,15
2023-01-26T06:37:12.687Z,15.1
2023-01-26T06:42:17.893Z,15.1
2023-01-26T06:47:24.045Z,15.1
2023-01-26T06:52:29.984Z,15.1
2023-01-26T06:57:36.067Z,15.1
2023-01-26T07:02:42.147Z,15.2
2023-01-26T07:07:48.239Z,15.2
2023-01-26T07:12:54.335Z,15.2
2023-01-26T07:18:00.410Z,15.2
2023-01-26T07:23:06.519Z,15.2
2023-01-26T07:28:12.605Z,15.2
2023-01-26T07:33:18.682Z,15.2
2023-01-26T07:43:31.035Z,15.3
2023-01-26T07:48:35.965Z,15.3
2023-01-26T07:53:42.059Z,15.5
2023-01-26T07:58:48.140Z,16
2023-01-26T08:03:54.233Z,16.5
2023-01-26T08:09:00.326Z,17
2023-01-26T08:14:06.405Z,17.2
2023-01-26T08:19:12.506Z,16.9
2023-01-26T08:24:18.604Z,16.5
2023-01-26T08:29:23.712Z,16.3
2023-01-26T08:34:28.808Z,16.1
2023-01-26T08:39:33.931Z,16
2023-01-26T08:44:39.043Z,15.9
2023-01-26T08:49:45.119Z,15.8
2023-01-26T08:54:51.210Z,15.8
2023-01-26T08:59:57.307Z,15.7
2023-01-26T09:05:03.411Z,15.7
2023-01-26T09:10:09.486Z,15.7
2023-01-26T09:15:15.568Z,15.6
2023-01-26T09:20:21.661Z,15.6
2023-01-26T09:25:27.742Z,15.5
2023-01-26T09:30:33.824Z,15.5
2023-01-26T09:35:39.918Z,15.5
2023-01-26T09:40:46.014Z,15.5
2023-01-26T09:45:52.107Z,15.4
2023-01-26T09:50:58.190Z,15.4
2023-01-26T09:56:04.277Z,15.4
2023-01-26T10:01:10.376Z,15.4
2023-01-26T10:06:15.489Z,15.4
2023-01-26T10:11:21.566Z,15.3
2023-01-26T10:16:27.653Z,15.3
2023-01-26T10:21:33.743Z,15.3
2023-01-26T10:26:38.856Z,15.3
2023-01-26T10:31:43.959Z,15.3
2023-01-26T10:36:49.085Z,15.3
2023-01-26T10:41:55.176Z,15.3
2023-01-26T10:47:00.276Z,15.3
2023-01-26T10:52:06.358Z,15.3
2023-01-26T10:57:12.447Z,15.3
2023-01-26T11:02:18.536Z,15.3
2023-01-26T11:07:24.624Z,15.3
2023-01-26T11:12:30.704Z,15.3
2023-01-26T11:17:36.790Z,15.3
2023-01-26T11:22:42.893Z,15.4
2023-01-26T11:27:49.061Z,15.7
2023-01-26T11:32:55.079Z,16.2
2023-01-26T11:38:01.158Z,16.7
2023-01-26T11:43:07.251Z,17.1
2023-01-26T11:48:13.331Z,17.5
2023-01-26T11:53:18.438Z,17.8
2023-01-26T11:58:24.531Z,18
2023-01-26T12:03:30.619Z,18.3
2023-01-26T12:08:36.710Z,18.5
2023-01-26T12:13:42.801Z,18.6
2023-01-26T12:18:48.882Z,18.6
2023-01-26T12:23:54.988Z,18.4
2023-01-26T12:29:00.106Z,18
2023-01-26T12:34:06.210Z,17.8
2023-01-26T12:39:11.344Z,17.9
2023-01-26T12:44:17.374Z,18.3
2023-01-26T12:49:23.628Z,18.6
2023-01-26T12:54:28.723Z,18.8
2023-01-26T12:59:33.743Z,18.7
2023-01-26T13:04:39.837Z,18.4
2023-01-26T13:09:45.864Z,18.1
2023-01-26T13:14:51.954Z,18
2023-01-26T13:19:58.053Z,18.1
2023-01-26T13:25:04.132Z,18.4
2023-01-26T13:30:10.238Z,18.5
2023-01-26T13:35:16.316Z,18.3
2023-01-26T13:40:22.406Z,18.1
2023-01-26T13:45:28.504Z,18
2023-01-26T13:50:34.624Z,18.1
2023-01-26T13:55:40.680Z,18.2
2023-01-26T14:00:46.753Z,18.1
2023-01-26T14:05:52.905Z,18
2023-01-26T14:10:57.986Z,17.9
2023-01-26T14:16:05.734Z,18.1
2023-01-26T14:21:10.145Z,18.3
2023-01-26T14:26:16.223Z,18.3
2023-01-26T14:31:22.326Z,18.1
2023-01-26T14:36:28.422Z,18
2023-01-26T14:41:33.519Z,18
2023-01-26T14:46:38.620Z,18
2023-01-26T14:51:44.754Z,18
2023-01-26T14:56:50.809Z,18
2023-01-26T15:01:55.928Z,17.9
2023-01-26T15:07:02.018Z,17.9
2023-01-26T15:12:07.124Z,18
2023-01-26T15:17:13.255Z,18.1
2023-01-26T15:22:19.324Z,18.1
2023-01-26T15:27:25.381Z,18
2023-01-26T15:32:31.475Z,18
2023-01-26T15:37:37.565Z,18.1
2023-01-26T15:42:43.656Z,18.2
2023-01-26T15:52:55.829Z,18
2023-01-26T15:58:01.933Z,17.9
2023-01-26T16:03:08.026Z,17.9
2023-01-26T16:08:14.111Z,18
2023-01-26T16:13:20.220Z,18
2023-01-26T16:23:31.411Z,17.9
2023-01-26T16:28:36.510Z,17.9
2023-01-26T16:33:41.653Z,18
2023-01-26T16:38:47.703Z,18
2023-01-26T16:43:53.788Z,18
2023-01-26T16:48:59.923Z,17.9
2023-01-26T16:59:12.142Z,17.8
2023-01-26T17:04:18.147Z,17.8
2023-01-26T17:09:24.257Z,17.8
2023-01-26T17:14:30.366Z,17.8
2023-01-26T17:19:36.434Z,17.8
2023-01-26T17:24:42.522Z,17.8
2023-01-26T17:29:48.601Z,17.8
2023-01-26T17:34:54.696Z,17.8
2023-01-26T17:40:00.781Z,17.8
2023-01-26T17:45:05.892Z,17.7
2023-01-26T17:50:11.986Z,17.7
2023-01-26T17:55:18.065Z,17.7
2023-01-26T18:00:24.162Z,17.7
2023-01-26T18:05:30.241Z,17.7
2023-01-26T18:10:36.335Z,17.5
2023-01-26T18:15:42.435Z,17.4
2023-01-26T18:20:48.519Z,17.2
2023-01-26T18:25:53.614Z,17.2
2023-01-26T18:30:59.755Z,17.1
2023-01-26T18:36:04.842Z,17
2023-01-26T18:41:10.946Z,16.9
2023-01-26T18:46:16.037Z,16.8
2023-01-26T18:51:21.125Z,16.7
2023-01-26T18:56:27.213Z,16.7
2023-01-26T19:01:33.332Z,16.6
2023-01-26T19:06:39.399Z,16.5
2023-01-26T19:11:45.489Z,16.5
2023-01-26T19:16:51.586Z,16.4
2023-01-26T19:21:57.674Z,16.4
2023-01-26T19:27:03.750Z,16.3
2023-01-26T19:32:09.838Z,16.2
2023-01-26T19:37:15.918Z,16.2
2023-01-26T19:42:22.023Z,16.2
2023-01-26T19:47:28.114Z,16.1
2023-01-26T19:52:34.220Z,16.1
2023-01-26T19:57:39.318Z,16
2023-01-26T20:02:45.405Z,16
2023-01-26T20:07:51.501Z,16
2023-01-26T20:12:57.577Z,15.9
2023-01-26T20:18:03.659Z,15.9
2023-01-26T20:23:09.762Z,15.9
2023-01-26T20:28:15.840Z,15.8
2023-01-26T20:33:20.960Z,15.8
2023-01-26T20:38:26.080Z,15.8
2023-01-26T20:43:31.174Z,15.8
2023-01-26T20:48:36.286Z,15.7
2023-01-26T20:53:42.369Z,15.7
2023-01-26T20:58:48.478Z,15.7
2023-01-26T21:03:54.556Z,15.7
2023-01-26T21:09:00.649Z,15.6
2023-01-26T21:14:06.768Z,15.6
2023-01-26T21:19:12.819Z,15.6
2023-01-26T21:24:18.924Z,15.5
2023-01-26T21:29:25.017Z,15.5
2023-01-26T21:34:31.098Z,15.5
2023-01-26T21:39:37.170Z,15.5
2023-01-26T21:44:43.263Z,15.5
2023-01-26T21:49:49.352Z,15.5
2023-01-26T21:54:55.508Z,15.4
2023-01-26T22:00:00.553Z,15.4
2023-01-26T22:05:06.640Z,15.4
2023-01-26T22:10:12.751Z,15.4
2023-01-26T22:15:18.812Z,15.4
2023-01-26T22:20:24.898Z,15.3
2023-01-26T22:25:31.000Z,15.3
2023-01-26T22:30:36.096Z,15.3
2023-01-26T22:35:42.191Z,15.3
2023-01-26T22:40:47.305Z,15.3
2023-01-26T22:45:53.390Z,15.3
2023-01-26T22:50:58.524Z,15.3
2023-01-26T22:56:03.619Z,15.3
2023-01-26T23:01:09.688Z,15.2
2023-01-26T23:06:15.790Z,15.2
2023-01-26T23:21:34.117Z,15.2
2023-01-26T23:26:40.168Z,15.2
2023-01-26T23:31:46.220Z,15.2
2023-01-26T23:36:52.313Z,15.1
2023-01-26T23:41:58.410Z,15.1
2023-01-26T23:47:03.516Z,15.1
2023-01-26T23:52:09.609Z,15.1
2023-01-26T23:57:14.739Z,15.1
